地図

経路データ

SID SEASON NUMBER BASIN SUBBASIN NAME ISO_TIME NATURE LAT LON WMO_WIND WMO_PRES WMO_AGENCY TRACK_TYPE DIST2LAND LANDFALL IFLAG USA_AGENCY USA_ATCF_ID USA_LAT USA_LON USA_RECORD USA_STATUS USA_WIND USA_PRES USA_SSHS USA_R34_NE USA_R34_SE USA_R34_SW USA_R34_NW USA_R50_NE USA_R50_SE USA_R50_SW USA_R50_NW USA_R64_NE USA_R64_SE USA_R64_SW USA_R64_NW USA_POCI USA_ROCI USA_RMW USA_EYE TOKYO_LAT TOKYO_LON TOKYO_GRADE TOKYO_WIND TOKYO_PRES TOKYO_R50_DIR TOKYO_R50_LONG TOKYO_R50_SHORT TOKYO_R30_DIR TOKYO_R30_LONG TOKYO_R30_SHORT TOKYO_LAND CMA_LAT CMA_LON CMA_CAT CMA_WIND CMA_PRES HKO_LAT HKO_LON HKO_CAT HKO_WIND HKO_PRES NEWDELHI_LAT NEWDELHI_LON NEWDELHI_GRADE NEWDELHI_WIND NEWDELHI_PRES NEWDELHI_CI NEWDELHI_DP NEWDELHI_POCI REUNION_LAT REUNION_LON REUNION_TYPE REUNION_WIND REUNION_PRES REUNION_TNUM REUNION_CI REUNION_RMW REUNION_R34_NE REUNION_R34_SE REUNION_R34_SW REUNION_R34_NW REUNION_R50_NE REUNION_R50_SE REUNION_R50_SW REUNION_R50_NW REUNION_R64_NE REUNION_R64_SE REUNION_R64_SW REUNION_R64_NW BOM_LAT BOM_LON BOM_TYPE BOM_WIND BOM_PRES BOM_TNUM BOM_CI BOM_RMW BOM_R34_NE BOM_R34_SE BOM_R34_SW BOM_R34_NW BOM_R50_NE BOM_R50_SE BOM_R50_SW BOM_R50_NW BOM_R64_NE BOM_R64_SE BOM_R64_SW BOM_R64_NW BOM_ROCI BOM_POCI BOM_EYE BOM_POS_METHOD BOM_PRES_METHOD NADI_LAT NADI_LON NADI_CAT NADI_WIND NADI_PRES WELLINGTON_LAT WELLINGTON_LON WELLINGTON_WIND WELLINGTON_PRES DS824_LAT DS824_LON DS824_STAGE DS824_WIND DS824_PRES TD9636_LAT TD9636_LON TD9636_STAGE TD9636_WIND TD9636_PRES TD9635_LAT TD9635_LON TD9635_WIND TD9635_PRES TD9635_ROCI NEUMANN_LAT NEUMANN_LON NEUMANN_CLASS NEUMANN_WIND NEUMANN_PRES MLC_LAT MLC_LON MLC_CLASS MLC_WIND MLC_PRES USA_GUST BOM_GUST BOM_GUST_PER REUNION_GUST REUNION_GUST_PER USA_SEAHGT USA_SEARAD_NE USA_SEARAD_SE USA_SEARAD_SW USA_SEARAD_NW STORM_SPEED STORM_DIR
1916112S06101 1916 18 SI WA NOT_NAMED 1916-04-21 06:00:00 NR -5.90000 101.400 main 228 228 _____O________ -1 -5.90000 101.400 99 9.90000 6 229
1916112S06101 1916 18 SI WA NOT_NAMED 1916-04-21 09:00:00 NR -6.09905 101.173 main 260 260 _____P________ -1 -6.09905 101.173 99 6 229
1916112S06101 1916 18 SI WA NOT_NAMED 1916-04-21 12:00:00 NR -6.29576 100.948 main 299 299 _____P________ -1 -6.29576 100.948 99 6 229
1916112S06101 1916 18 SI WA NOT_NAMED 1916-04-21 15:00:00 NR -6.48786 100.725 main 330 330 _____P________ -1 -6.48786 100.725 99 6 229
1916112S06101 1916 18 SI WA NOT_NAMED 1916-04-21 18:00:00 NR -6.67308 100.506 main 362 362 _____P________ -1 -6.67308 100.506 99 6 230
1916112S06101 1916 18 SI WA NOT_NAMED 1916-04-21 21:00:00 NR -6.84917 100.293 main 384 384 _____P________ -1 -6.84917 100.293 99 5 231
1916112S06101 1916 18 SI WA NOT_NAMED 1916-04-22 00:00:00 NR -7.01385 100.086 main 415 415 _____P________ -1 -7.01385 100.086 99 5 232
1916112S06101 1916 18 SI WA NOT_NAMED 1916-04-22 03:00:00 NR -7.16487 99.8882 main 446 446 _____P________ -1 -7.16487 99.8882 99 5 233
1916112S06101 1916 18 SI WA NOT_NAMED 1916-04-22 06:00:00 NR -7.30000 99.7000 main 468 468 _____O________ -1 -7.30000 99.7000 99 9.90000 4 235
1916112S06101 1916 18 SI WA NOT_NAMED 1916-04-22 09:00:00 NR -7.41788 99.5221 main 491 491 _____P________ -1 -7.41788 99.5221 99 4 238
1916112S06101 1916 18 SI WA NOT_NAMED 1916-04-22 12:00:00 NR -7.52079 99.3507 main 506 506 _____P________ -1 -7.52079 99.3507 99 4 240
1916112S06101 1916 18 SI WA NOT_NAMED 1916-04-22 15:00:00 NR -7.61187 99.1814 main 529 529 _____P________ -1 -7.61187 99.1814 99 4 243
1916112S06101 1916 18 SI WA NOT_NAMED 1916-04-22 18:00:00 NR -7.69429 99.0093 main 552 552 _____P________ -1 -7.69429 99.0093 99 4 245
1916112S06101 1916 18 SI WA NOT_NAMED 1916-04-22 21:00:00 NR -7.77118 98.8298 main 575 575 _____P________ -1 -7.77118 98.8298 99 4 248
1916112S06101 1916 18 SI WA NOT_NAMED 1916-04-23 00:00:00 NR -7.84568 98.6382 main 590 590 _____P________ -1 -7.84568 98.6382 99 4 249
1916112S06101 1916 18 SI WA NOT_NAMED 1916-04-23 03:00:00 NR -7.92092 98.4299 main 614 614 _____P________ -1 -7.92092 98.4299 99 5 250
1916112S06101 1916 18 SI WA NOT_NAMED 1916-04-23 06:00:00 NR -8.00000 98.2000 main 637 637 _____O________ -1 -8.00000 98.2000 99 9.90000 5 252
1916112S06101 1916 18 SI WA NOT_NAMED 1916-04-23 09:00:00 NR -8.08594 97.9281 main 669 669 _____P________ -1 -8.08594 97.9281 99 6 253
1916112S06101 1916 18 SI WA NOT_NAMED 1916-04-23 12:00:00 NR -8.17281 97.6345 main 701 701 _____P________ -1 -8.17281 97.6345 99 6 254
1916112S06101 1916 18 SI WA NOT_NAMED 1916-04-23 15:00:00 NR -8.26213 97.3241 main 733 733 _____P________ -1 -8.26213 97.3241 99 7 254
1916112S06101 1916 18 SI WA NOT_NAMED 1916-04-23 18:00:00 NR -8.35544 97.0021 main 766 766 _____P________ -1 -8.35544 97.0021 99 7 253
1916112S06101 1916 18 SI WA NOT_NAMED 1916-04-23 21:00:00 NR -8.45430 96.6736 main 796 796 _____P________ -1 -8.45430 96.6736 99 7 253
1916112S06101 1916 18 SI WA NOT_NAMED 1916-04-24 00:00:00 NR -8.56028 96.3437 main 822 822 _____P________ -1 -8.56028 96.3437 99 7 251
1916112S06101 1916 18 SI WA NOT_NAMED 1916-04-24 03:00:00 NR -8.67498 96.0175 main 845 845 _____P________ -1 -8.67498 96.0175 99 7 249
1916112S06101 1916 18 SI WA NOT_NAMED 1916-04-24 06:00:00 NR -8.80000 95.7000 main 870 870 _____O________ -1 -8.80000 95.7000 99 9.90000 6 247
1916112S06101 1916 18 SI WA NOT_NAMED 1916-04-24 09:00:00 NR -8.92535 95.4335 main 894 894 _____P________ -1 -8.92535 95.4335 99 6 243
1916112S06101 1916 18 SI WA NOT_NAMED 1916-04-24 12:00:00 NR -9.05967 95.1761 main 924 924 _____P________ -1 -9.05967 95.1761 99 6 241
1916112S06101 1916 18 SI WA NOT_NAMED 1916-04-24 15:00:00 NR -9.20378 94.9221 main 949 949 _____P________ -1 -9.20378 94.9221 99 6 239
1916112S06101 1916 18 SI WA NOT_NAMED 1916-04-24 18:00:00 NR -9.35853 94.6657 main 980 980 _____P________ -1 -9.35853 94.6657 99 6 238
1916112S06101 1916 18 SI WA NOT_NAMED 1916-04-24 21:00:00 NR -9.52472 94.4011 main 1005 1005 _____P________ -1 -9.52472 94.4011 99 6 237
1916112S06101 1916 18 SI WA NOT_NAMED 1916-04-25 00:00:00 NR -9.70318 94.1225 main 1041 1041 _____P________ -1 -9.70318 94.1225 99 7 237
1916112S06101 1916 18 SI WA NOT_NAMED 1916-04-25 03:00:00 NR -9.89468 93.8241 main 1078 1078 _____P________ -1 -9.89468 93.8241 99 7 237
1916112S06101 1916 18 SI WA NOT_NAMED 1916-04-25 06:00:00 NR -10.1000 93.5000 main 1114 1114 _____O________ -1 -10.1000 93.5000 99 9.90000 8 238
1916112S06101 1916 18 SI WA NOT_NAMED 1916-04-25 09:00:00 NR -10.2938 93.1711 main 1151 1151 _____P________ -1 -10.2938 93.1711 99 8 239
1916112S06101 1916 18 SI WA NOT_NAMED 1916-04-25 12:00:00 NR -10.4994 92.8220 main 1194 1194 _____P________ -1 -10.4994 92.8220 99 8 239
1916112S06101 1916 18 SI WA NOT_NAMED 1916-04-25 15:00:00 NR -10.7191 92.4491 main 1238 1238 _____P________ -1 -10.7191 92.4491 99 9 239
1916112S06101 1916 18 SI WA NOT_NAMED 1916-04-25 18:00:00 NR -10.9548 92.0489 main 1291 1291 _____P________ -1 -10.9548 92.0489 99 10 239
1916112S06101 1916 18 SI WA NOT_NAMED 1916-04-25 21:00:00 NR -11.2087 91.6176 main 1335 1335 _____P________ -1 -11.2087 91.6176 99 10 239
1916112S06101 1916 18 SI WA NOT_NAMED 1916-04-26 00:00:00 NR -11.4828 91.1517 main 1388 1388 _____P________ -1 -11.4828 91.1517 99 11 239
1916112S06101 1916 18 SI WA NOT_NAMED 1916-04-26 03:00:00 NR -11.7792 90.6471 main 1455 1455 _____P________ -1 -11.7792 90.6471 99 12 239
1916112S06101 1916 18 SI WA NOT_NAMED 1916-04-26 06:00:00 NR -12.1000 90.1000 main 1516 1516 _____O________ -1 -12.1000 90.1000 99 9.90000 13 243
1916112S06101 1916 18 SI MM NOT_NAMED 1916-04-26 09:00:00 NR -12.3627 89.4703 main 1584 1584 _____P________ -1 -12.3627 89.4703 99 14 247
1916112S06101 1916 18 SI MM NOT_NAMED 1916-04-26 12:00:00 NR -12.6403 88.7904 main 1652 1652 _____P________ -1 -12.6403 88.7904 99 15 247
1916112S06101 1916 18 SI MM NOT_NAMED 1916-04-26 15:00:00 NR -12.9448 88.0756 main 1729 1729 _____P________ -1 -12.9448 88.0756 99 16 245
1916112S06101 1916 18 SI MM NOT_NAMED 1916-04-26 18:00:00 NR -13.2882 87.3411 main 1822 1822 _____P________ -1 -13.2882 87.3411 99 16 243
1916112S06101 1916 18 SI MM NOT_NAMED 1916-04-26 21:00:00 NR -13.6827 86.6017 main 1907 1907 _____P________ -1 -13.6827 86.6017 99 17 239
1916112S06101 1916 18 SI MM NOT_NAMED 1916-04-27 00:00:00 NR -14.1410 85.8720 main 1993 1993 _____P________ -1 -14.1410 85.8720 99 17 234
1916112S06101 1916 18 SI MM NOT_NAMED 1916-04-27 03:00:00 NR -14.6757 85.1667 main 2094 2094 _____P________ -1 -14.6757 85.1667 99 18 229
1916112S06101 1916 18 SI MM NOT_NAMED 1916-04-27 06:00:00 NR -15.3000 84.5000 main 2195 2195 _____O________ -1 -15.3000 84.5000 99 9.90000 20 221
1916112S06101 1916 18 SI MM NOT_NAMED 1916-04-27 09:00:00 NR -16.1528 83.8394 main 2318 2318 _____P________ -1 -16.1528 83.8394 99 22 215
1916112S06101 1916 18 SI MM NOT_NAMED 1916-04-27 12:00:00 NR -17.1131 83.1981 main 2434 2434 _____P________ -1 -17.1131 83.1981 99 23 211
1916112S06101 1916 18 SI MM NOT_NAMED 1916-04-27 15:00:00 NR -18.1413 82.5863 main 2557 2534 _____P________ -1 -18.1413 82.5863 99 24 208
1916112S06101 1916 18 SI MM NOT_NAMED 1916-04-27 18:00:00 NR -19.1973 82.0155 main 2533 2470 _____P________ -1 -19.1973 82.0155 99 24 206
1916112S06101 1916 18 SI MM NOT_NAMED 1916-04-27 21:00:00 NR -20.2411 81.4979 main 2470 2422 _____P________ -1 -20.2411 81.4979 99 22 204
1916112S06101 1916 18 SI MM NOT_NAMED 1916-04-28 00:00:00 NR -21.2325 81.0467 main 2411 2379 _____P________ -1 -21.2325 81.0467 99 21 202
1916112S06101 1916 18 SI MM NOT_NAMED 1916-04-28 03:00:00 NR -22.1320 80.6759 main 2379 2351 _____P________ -1 -22.1320 80.6759 99 18 200
1916112S06101 1916 18 SI MM NOT_NAMED 1916-04-28 06:00:00 NR -22.9000 80.4000 main 2351 2334 _____O________ -1 -22.9000 80.4000 99 9.90000 14 197
1916112S06101 1916 18 SI MM NOT_NAMED 1916-04-28 09:00:00 NR -23.5077 80.2292 main 2335 2335 _____P________ -1 -23.5077 80.2292 99 11 192
1916112S06101 1916 18 SI MM NOT_NAMED 1916-04-28 12:00:00 NR -23.9669 80.1556 main 2340 2331 _____P________ -1 -23.9669 80.1556 99 8 184
1916112S06101 1916 18 SI MM NOT_NAMED 1916-04-28 15:00:00 NR -24.2993 80.1663 main 2343 2343 _____P________ -1 -24.2993 80.1663 99 6 172
1916112S06101 1916 18 SI MM NOT_NAMED 1916-04-28 18:00:00 NR -24.5263 80.2477 main 2346 2346 _____P________ -1 -24.5263 80.2477 99 4 152
1916112S06101 1916 18 SI MM NOT_NAMED 1916-04-28 21:00:00 NR -24.6688 80.3859 main 2369 2369 _____P________ -1 -24.6688 80.3859 99 4 127
1916112S06101 1916 18 SI MM NOT_NAMED 1916-04-29 00:00:00 NR -24.7480 80.5668 main 2389 2389 _____P________ -1 -24.7480 80.5668 99 4 108
1916112S06101 1916 18 SI MM NOT_NAMED 1916-04-29 03:00:00 NR -24.7847 80.7762 main 2410 2410 _____P________ -1 -24.7847 80.7762 99 4 98
1916112S06101 1916 18 SI MM NOT_NAMED 1916-04-29 06:00:00 NR -24.8000 81.0000 main 2430 _____O________ -1 -24.8000 81.0000 99 9.90000 4 94

IBTrACS Databaseについて

本データベースは、米国NOAAが公開する1842年以降の世界の熱帯低気圧のベストトラックデータアーカイブInternational Best Track Archive for Climate Stewardship (IBTrACS)を、ウェブで閲覧しやすい形式に変換したものです。

最終更新日:2021-11-26